sensor_id;sensor_type;location;lat;lon;timestamp;P1;durP1;ratioP1;P2;durP2;ratioP2
10333;SDS011;5212;47.892;16.406;2022-08-03T00:01:51;4.40;;;4.00;;
10333;SDS011;5212;47.892;16.406;2022-08-03T00:04:20;4.00;;;3.70;;
10333;SDS011;5212;47.892;16.406;2022-08-03T00:06:47;4.13;;;3.73;;
10333;SDS011;5212;47.892;16.406;2022-08-03T00:09:15;4.20;;;3.80;;
10333;SDS011;5212;47.892;16.406;2022-08-03T00:11:42;4.33;;;3.53;;
10333;SDS011;5212;47.892;16.406;2022-08-03T00:14:10;4.00;;;3.70;;
10333;SDS011;5212;47.892;16.406;2022-08-03T00:16:38;4.50;;;4.10;;
10333;SDS011;5212;47.892;16.406;2022-08-03T00:19:05;3.93;;;3.63;;
10333;SDS011;5212;47.892;16.406;2022-08-03T00:21:35;4.50;;;4.10;;
10333;SDS011;5212;47.892;16.406;2022-08-03T00:24:04;4.80;;;4.40;;
10333;SDS011;5212;47.892;16.406;2022-08-03T00:26:32;4.10;;;3.70;;
10333;SDS011;5212;47.892;16.406;2022-08-03T00:28:59;4.00;;;3.70;;
10333;SDS011;5212;47.892;16.406;2022-08-03T00:31:27;4.43;;;4.03;;
10333;SDS011;5212;47.892;16.406;2022-08-03T00:33:54;3.97;;;3.67;;
10333;SDS011;5212;47.892;16.406;2022-08-03T00:36:22;4.60;;;4.20;;
10333;SDS011;5212;47.892;16.406;2022-08-03T00:38:52;4.23;;;3.93;;
10333;SDS011;5212;47.892;16.406;2022-08-03T00:41:19;4.27;;;3.87;;
10333;SDS011;5212;47.892;16.406;2022-08-03T00:43:47;4.10;;;3.70;;
10333;SDS011;5212;47.892;16.406;2022-08-03T00:46:14;4.27;;;3.97;;
10333;SDS011;5212;47.892;16.406;2022-08-03T00:48:42;4.73;;;4.33;;
10333;SDS011;5212;47.892;16.406;2022-08-03T00:51:10;4.87;;;4.37;;
10333;SDS011;5212;47.892;16.406;2022-08-03T00:53:37;4.40;;;4.00;;
10333;SDS011;5212;47.892;16.406;2022-08-03T00:56:07;4.27;;;3.87;;
10333;SDS011;5212;47.892;16.406;2022-08-03T00:58:35;4.33;;;3.93;;
10333;SDS011;5212;47.892;16.406;2022-08-03T01:01:03;4.83;;;4.30;;
10333;SDS011;5212;47.892;16.406;2022-08-03T01:03:31;4.00;;;3.70;;
10333;SDS011;5212;47.892;16.406;2022-08-03T01:06:03;4.27;;;3.87;;
10333;SDS011;5212;47.892;16.406;2022-08-03T01:08:39;4.27;;;3.87;;
10333;SDS011;5212;47.892;16.406;2022-08-03T01:11:22;4.77;;;4.37;;
10333;SDS011;5212;47.892;16.406;2022-08-03T01:13:59;4.40;;;4.00;;
10333;SDS011;5212;47.892;16.406;2022-08-03T01:16:34;4.80;;;4.30;;
10333;SDS011;5212;47.892;16.406;2022-08-03T01:19:21;4.63;;;4.23;;
10333;SDS011;5212;47.892;16.406;2022-08-03T01:25:37;4.80;;;4.40;;
10333;SDS011;5212;47.892;16.406;2022-08-03T01:28:24;4.77;;;4.37;;
10333;SDS011;5212;47.892;16.406;2022-08-03T01:31:11;4.90;;;4.50;;
10333;SDS011;5212;47.892;16.406;2022-08-03T01:33:49;5.00;;;4.50;;
10333;SDS011;5212;47.892;16.406;2022-08-03T01:36:32;4.60;;;4.20;;
10333;SDS011;5212;47.892;16.406;2022-08-03T01:39:06;4.60;;;4.20;;
10333;SDS011;5212;47.892;16.406;2022-08-03T01:41:39;4.93;;;4.53;;
10333;SDS011;5212;47.892;16.406;2022-08-03T01:44:14;4.60;;;4.20;;
10333;SDS011;5212;47.892;16.406;2022-08-03T01:46:51;4.40;;;4.00;;
10333;SDS011;5212;47.892;16.406;2022-08-03T01:49:22;4.40;;;4.00;;
10333;SDS011;5212;47.892;16.406;2022-08-03T01:51:50;4.00;;;3.70;;
10333;SDS011;5212;47.892;16.406;2022-08-03T01:54:18;4.37;;;4.03;;
10333;SDS011;5212;47.892;16.406;2022-08-03T01:56:47;4.33;;;3.93;;
10333;SDS011;5212;47.892;16.406;2022-08-03T01:59:15;4.77;;;4.37;;
10333;SDS011;5212;47.892;16.406;2022-08-03T02:01:43;5.03;;;4.63;;
10333;SDS011;5212;47.892;16.406;2022-08-03T02:04:14;4.90;;;4.50;;
10333;SDS011;5212;47.892;16.406;2022-08-03T02:06:44;4.53;;;4.13;;
10333;SDS011;5212;47.892;16.406;2022-08-03T02:09:12;4.17;;;3.87;;
10333;SDS011;5212;47.892;16.406;2022-08-03T02:11:42;4.17;;;3.83;;
10333;SDS011;5212;47.892;16.406;2022-08-03T02:14:10;4.33;;;4.00;;
10333;SDS011;5212;47.892;16.406;2022-08-03T02:16:40;4.70;;;4.30;;
10333;SDS011;5212;47.892;16.406;2022-08-03T02:19:09;4.10;;;3.80;;
10333;SDS011;5212;47.892;16.406;2022-08-03T02:21:40;4.83;;;4.43;;
10333;SDS011;5212;47.892;16.406;2022-08-03T02:24:08;4.73;;;4.33;;
10333;SDS011;5212;47.892;16.406;2022-08-03T02:26:37;4.50;;;4.10;;
10333;SDS011;5212;47.892;16.406;2022-08-03T02:29:12;4.67;;;4.27;;
10333;SDS011;5212;47.892;16.406;2022-08-03T02:31:42;4.60;;;4.20;;
10333;SDS011;5212;47.892;16.406;2022-08-03T02:34:12;5.00;;;4.60;;
10333;SDS011;5212;47.892;16.406;2022-08-03T02:36:42;5.27;;;4.77;;
10333;SDS011;5212;47.892;16.406;2022-08-03T02:39:13;5.10;;;4.60;;
10333;SDS011;5212;47.892;16.406;2022-08-03T02:41:44;5.20;;;4.77;;
10333;SDS011;5212;47.892;16.406;2022-08-03T02:44:14;5.33;;;4.73;;
10333;SDS011;5212;47.892;16.406;2022-08-03T02:46:44;4.77;;;4.37;;
10333;SDS011;5212;47.892;16.406;2022-08-03T02:49:14;5.10;;;4.70;;
10333;SDS011;5212;47.892;16.406;2022-08-03T02:51:46;4.50;;;4.10;;
10333;SDS011;5212;47.892;16.406;2022-08-03T02:54:13;4.80;;;4.40;;
10333;SDS011;5212;47.892;16.406;2022-08-03T02:56:44;5.03;;;4.53;;
10333;SDS011;5212;47.892;16.406;2022-08-03T02:59:13;4.90;;;4.40;;
10333;SDS011;5212;47.892;16.406;2022-08-03T03:01:41;4.33;;;4.00;;
10333;SDS011;5212;47.892;16.406;2022-08-03T03:04:09;4.90;;;4.50;;
10333;SDS011;5212;47.892;16.406;2022-08-03T03:06:37;4.40;;;4.00;;
10333;SDS011;5212;47.892;16.406;2022-08-03T03:09:07;4.50;;;4.10;;
10333;SDS011;5212;47.892;16.406;2022-08-03T03:11:37;4.83;;;4.33;;
10333;SDS011;5212;47.892;16.406;2022-08-03T03:14:05;4.40;;;4.00;;
10333;SDS011;5212;47.892;16.406;2022-08-03T03:16:33;4.10;;;3.80;;
10333;SDS011;5212;47.892;16.406;2022-08-03T03:19:01;4.20;;;3.80;;
10333;SDS011;5212;47.892;16.406;2022-08-03T03:21:28;5.90;;;4.30;;
10333;SDS011;5212;47.892;16.406;2022-08-03T03:23:56;5.60;;;4.70;;
10333;SDS011;5212;47.892;16.406;2022-08-03T03:26:27;5.13;;;4.70;;
10333;SDS011;5212;47.892;16.406;2022-08-03T03:28:55;5.30;;;4.73;;
10333;SDS011;5212;47.892;16.406;2022-08-03T03:31:23;4.60;;;4.20;;
10333;SDS011;5212;47.892;16.406;2022-08-03T03:33:50;5.00;;;4.53;;
10333;SDS011;5212;47.892;16.406;2022-08-03T03:36:19;3.90;;;3.60;;
10333;SDS011;5212;47.892;16.406;2022-08-03T03:38:46;4.07;;;3.77;;
10333;SDS011;5212;47.892;16.406;2022-08-03T03:41:13;4.77;;;3.80;;
10333;SDS011;5212;47.892;16.406;2022-08-03T03:43:42;4.67;;;4.27;;
10333;SDS011;5212;47.892;16.406;2022-08-03T03:46:11;4.70;;;4.30;;
10333;SDS011;5212;47.892;16.406;2022-08-03T03:48:38;4.40;;;4.00;;
10333;SDS011;5212;47.892;16.406;2022-08-03T03:51:05;4.43;;;4.07;;
10333;SDS011;5212;47.892;16.406;2022-08-03T03:53:33;4.53;;;4.13;;
10333;SDS011;5212;47.892;16.406;2022-08-03T03:56:01;4.50;;;4.10;;
10333;SDS011;5212;47.892;16.406;2022-08-03T03:58:30;4.27;;;3.87;;
10333;SDS011;5212;47.892;16.406;2022-08-03T04:01:00;3.90;;;3.60;;
10333;SDS011;5212;47.892;16.406;2022-08-03T04:03:28;4.30;;;3.90;;
10333;SDS011;5212;47.892;16.406;2022-08-03T04:05:55;4.10;;;3.70;;
10333;SDS011;5212;47.892;16.406;2022-08-03T04:08:40;4.17;;;3.87;;
10333;SDS011;5212;47.892;16.406;2022-08-03T04:11:40;4.73;;;4.33;;
10333;SDS011;5212;47.892;16.406;2022-08-03T04:14:11;5.17;;;4.30;;
10333;SDS011;5212;47.892;16.406;2022-08-03T04:16:44;4.93;;;4.53;;
10333;SDS011;5212;47.892;16.406;2022-08-03T04:19:14;4.17;;;3.83;;
10333;SDS011;5212;47.892;16.406;2022-08-03T04:21:45;4.73;;;4.33;;
10333;SDS011;5212;47.892;16.406;2022-08-03T04:24:14;4.17;;;3.77;;
10333;SDS011;5212;47.892;16.406;2022-08-03T04:26:42;4.10;;;3.80;;
10333;SDS011;5212;47.892;16.406;2022-08-03T04:29:11;4.10;;;3.80;;
10333;SDS011;5212;47.892;16.406;2022-08-03T04:31:40;3.80;;;3.50;;
10333;SDS011;5212;47.892;16.406;2022-08-03T04:34:09;4.27;;;3.87;;
10333;SDS011;5212;47.892;16.406;2022-08-03T04:36:39;3.80;;;3.50;;
10333;SDS011;5212;47.892;16.406;2022-08-03T04:39:13;3.73;;;3.43;;
10333;SDS011;5212;47.892;16.406;2022-08-03T04:41:44;4.13;;;3.80;;
10333;SDS011;5212;47.892;16.406;2022-08-03T04:44:12;3.80;;;3.50;;
10333;SDS011;5212;47.892;16.406;2022-08-03T04:46:40;3.80;;;3.50;;
10333;SDS011;5212;47.892;16.406;2022-08-03T04:49:09;4.20;;;3.77;;
10333;SDS011;5212;47.892;16.406;2022-08-03T04:51:38;4.23;;;3.83;;
10333;SDS011;5212;47.892;16.406;2022-08-03T04:54:10;4.67;;;4.03;;
10333;SDS011;5212;47.892;16.406;2022-08-03T04:56:38;4.10;;;3.80;;
10333;SDS011;5212;47.892;16.406;2022-08-03T04:59:06;4.50;;;4.10;;
10333;SDS011;5212;47.892;16.406;2022-08-03T05:01:34;4.57;;;4.00;;
10333;SDS011;5212;47.892;16.406;2022-08-03T05:04:03;4.23;;;3.83;;
10333;SDS011;5212;47.892;16.406;2022-08-03T05:06:31;4.90;;;4.50;;
10333;SDS011;5212;47.892;16.406;2022-08-03T05:08:58;4.50;;;3.93;;
10333;SDS011;5212;47.892;16.406;2022-08-03T05:11:26;5.17;;;4.50;;
10333;SDS011;5212;47.892;16.406;2022-08-03T05:13:53;4.73;;;4.30;;
10333;SDS011;5212;47.892;16.406;2022-08-03T05:16:21;4.70;;;4.30;;
10333;SDS011;5212;47.892;16.406;2022-08-03T05:18:50;4.87;;;4.37;;
10333;SDS011;5212;47.892;16.406;2022-08-03T05:21:19;4.50;;;4.10;;
10333;SDS011;5212;47.892;16.406;2022-08-03T05:23:47;4.97;;;4.57;;
10333;SDS011;5212;47.892;16.406;2022-08-03T05:26:15;4.63;;;4.23;;
10333;SDS011;5212;47.892;16.406;2022-08-03T05:28:43;5.07;;;4.53;;
10333;SDS011;5212;47.892;16.406;2022-08-03T05:31:12;4.80;;;4.40;;
10333;SDS011;5212;47.892;16.406;2022-08-03T05:33:50;4.50;;;4.10;;
10333;SDS011;5212;47.892;16.406;2022-08-03T05:36:23;5.00;;;4.60;;
10333;SDS011;5212;47.892;16.406;2022-08-03T05:38:55;4.53;;;4.23;;
10333;SDS011;5212;47.892;16.406;2022-08-03T05:41:31;5.67;;;5.10;;
10333;SDS011;5212;47.892;16.406;2022-08-03T05:44:04;4.83;;;4.43;;
10333;SDS011;5212;47.892;16.406;2022-08-03T06:06:53;4.77;;;4.37;;
10333;SDS011;5212;47.892;16.406;2022-08-03T06:09:22;5.93;;;5.10;;
10333;SDS011;5212;47.892;16.406;2022-08-03T06:11:51;5.33;;;4.83;;
10333;SDS011;5212;47.892;16.406;2022-08-03T06:14:18;5.20;;;4.70;;
10333;SDS011;5212;47.892;16.406;2022-08-03T06:16:49;5.00;;;4.60;;
10333;SDS011;5212;47.892;16.406;2022-08-03T06:19:41;5.20;;;4.80;;
10333;SDS011;5212;47.892;16.406;2022-08-03T09:20:44;2.03;;;1.87;;
10333;SDS011;5212;47.892;16.406;2022-08-03T09:23:12;2.10;;;1.90;;
10333;SDS011;5212;47.892;16.406;2022-08-03T09:25:42;1.90;;;1.80;;
10333;SDS011;5212;47.892;16.406;2022-08-03T12:00:48;1.40;;;1.30;;
10333;SDS011;5212;47.892;16.406;2022-08-03T12:05:57;1.50;;;1.40;;
10333;SDS011;5212;47.892;16.406;2022-08-03T12:08:29;1.63;;;1.52;;
10333;SDS011;5212;47.892;16.406;2022-08-03T14:23:16;1.80;;;1.60;;
10333;SDS011;5212;47.892;16.406;2022-08-03T14:26:22;1.57;;;1.47;;
10333;SDS011;5212;47.892;16.406;2022-08-03T14:29:12;1.50;;;1.40;;
10333;SDS011;5212;47.892;16.406;2022-08-03T14:32:20;2.20;;;1.53;;
10333;SDS011;5212;47.892;16.406;2022-08-03T14:35:01;2.33;;;1.50;;
10333;SDS011;5212;47.892;16.406;2022-08-03T14:37:57;1.77;;;1.67;;
10333;SDS011;5212;47.892;16.406;2022-08-03T14:47:27;2.13;;;1.70;;
10333;SDS011;5212;47.892;16.406;2022-08-03T14:50:37;2.17;;;1.83;;
10333;SDS011;5212;47.892;16.406;2022-08-03T14:53:52;1.80;;;1.70;;
10333;SDS011;5212;47.892;16.406;2022-08-03T14:56:52;2.10;;;1.90;;
10333;SDS011;5212;47.892;16.406;2022-08-03T15:00:07;1.90;;;1.70;;
10333;SDS011;5212;47.892;16.406;2022-08-03T15:29:24;5.23;;;1.80;;
10333;SDS011;5212;47.892;16.406;2022-08-03T15:31:52;1.70;;;1.60;;
10333;SDS011;5212;47.892;16.406;2022-08-03T15:34:19;1.60;;;1.50;;
10333;SDS011;5212;47.892;16.406;2022-08-03T15:36:47;2.60;;;1.60;;
10333;SDS011;5212;47.892;16.406;2022-08-03T15:39:15;2.57;;;1.80;;
10333;SDS011;5212;47.892;16.406;2022-08-03T15:41:42;2.53;;;1.53;;
10333;SDS011;5212;47.892;16.406;2022-08-03T15:44:10;2.40;;;1.70;;
10333;SDS011;5212;47.892;16.406;2022-08-03T15:46:39;1.70;;;1.60;;
10333;SDS011;5212;47.892;16.406;2022-08-03T15:49:07;1.80;;;1.70;;
10333;SDS011;5212;47.892;16.406;2022-08-03T15:51:34;2.27;;;1.90;;
10333;SDS011;5212;47.892;16.406;2022-08-03T15:54:02;1.60;;;1.50;;
10333;SDS011;5212;47.892;16.406;2022-08-03T15:56:30;1.57;;;1.40;;
10333;SDS011;5212;47.892;16.406;2022-08-03T15:58:57;1.70;;;1.60;;
10333;SDS011;5212;47.892;16.406;2022-08-03T16:01:25;2.97;;;1.57;;
10333;SDS011;5212;47.892;16.406;2022-08-03T16:03:54;1.67;;;1.57;;
10333;SDS011;5212;47.892;16.406;2022-08-03T16:06:22;1.60;;;1.50;;
10333;SDS011;5212;47.892;16.406;2022-08-03T16:08:50;1.50;;;1.40;;
10333;SDS011;5212;47.892;16.406;2022-08-03T16:11:18;2.10;;;1.90;;
10333;SDS011;5212;47.892;16.406;2022-08-03T16:13:47;1.70;;;1.57;;
10333;SDS011;5212;47.892;16.406;2022-08-03T16:16:15;1.90;;;1.70;;
10333;SDS011;5212;47.892;16.406;2022-08-03T16:18:42;1.93;;;1.83;;
10333;SDS011;5212;47.892;16.406;2022-08-03T16:21:12;2.60;;;1.50;;
10333;SDS011;5212;47.892;16.406;2022-08-03T16:23:40;1.90;;;1.70;;
10333;SDS011;5212;47.892;16.406;2022-08-03T16:26:09;1.60;;;1.50;;
10333;SDS011;5212;47.892;16.406;2022-08-03T16:28:37;2.40;;;1.77;;
10333;SDS011;5212;47.892;16.406;2022-08-03T16:31:12;1.50;;;1.40;;
10333;SDS011;5212;47.892;16.406;2022-08-03T16:33:41;1.63;;;1.53;;
10333;SDS011;5212;47.892;16.406;2022-08-03T16:36:09;1.50;;;1.37;;
10333;SDS011;5212;47.892;16.406;2022-08-03T16:38:39;1.43;;;1.30;;
10333;SDS011;5212;47.892;16.406;2022-08-03T16:41:07;1.60;;;1.50;;
10333;SDS011;5212;47.892;16.406;2022-08-03T16:43:35;2.60;;;2.17;;
10333;SDS011;5212;47.892;16.406;2022-08-03T16:46:04;2.10;;;1.90;;
10333;SDS011;5212;47.892;16.406;2022-08-03T16:48:32;2.97;;;1.83;;
10333;SDS011;5212;47.892;16.406;2022-08-03T16:50:59;2.33;;;1.63;;
10333;SDS011;5212;47.892;16.406;2022-08-03T16:53:27;2.23;;;1.70;;
10333;SDS011;5212;47.892;16.406;2022-08-03T16:55:59;2.93;;;2.63;;
10333;SDS011;5212;47.892;16.406;2022-08-03T16:58:27;2.90;;;2.70;;
10333;SDS011;5212;47.892;16.406;2022-08-03T17:00:57;2.00;;;1.90;;
10333;SDS011;5212;47.892;16.406;2022-08-03T17:03:26;2.10;;;1.90;;
10333;SDS011;5212;47.892;16.406;2022-08-03T18:17:20;1.57;;;1.40;;
10333;SDS011;5212;47.892;16.406;2022-08-03T18:20:08;1.20;;;1.10;;
10333;SDS011;5212;47.892;16.406;2022-08-03T18:22:59;1.40;;;1.20;;
10333;SDS011;5212;47.892;16.406;2022-08-03T18:25:45;1.40;;;1.30;;
10333;SDS011;5212;47.892;16.406;2022-08-03T18:28:54;1.43;;;1.33;;
10333;SDS011;5212;47.892;16.406;2022-08-03T18:55:19;2.60;;;1.73;;
10333;SDS011;5212;47.892;16.406;2022-08-03T18:57:54;1.53;;;1.43;;
10333;SDS011;5212;47.892;16.406;2022-08-03T19:00:26;1.80;;;1.70;;
10333;SDS011;5212;47.892;16.406;2022-08-03T19:02:56;2.37;;;1.50;;
10333;SDS011;5212;47.892;16.406;2022-08-03T19:05:29;2.00;;;1.80;;
10333;SDS011;5212;47.892;16.406;2022-08-03T19:07:58;1.70;;;1.60;;
10333;SDS011;5212;47.892;16.406;2022-08-03T19:10:32;2.33;;;1.63;;
10333;SDS011;5212;47.892;16.406;2022-08-03T19:13:02;2.00;;;1.70;;
10333;SDS011;5212;47.892;16.406;2022-08-03T19:15:32;1.77;;;1.67;;
10333;SDS011;5212;47.892;16.406;2022-08-03T19:18:02;2.10;;;1.60;;
10333;SDS011;5212;47.892;16.406;2022-08-03T19:20:38;1.63;;;1.53;;
10333;SDS011;5212;47.892;16.406;2022-08-03T19:23:06;1.73;;;1.60;;
10333;SDS011;5212;47.892;16.406;2022-08-03T19:25:36;2.47;;;1.70;;
10333;SDS011;5212;47.892;16.406;2022-08-03T19:28:04;2.00;;;1.80;;
10333;SDS011;5212;47.892;16.406;2022-08-03T19:30:32;2.10;;;1.90;;
10333;SDS011;5212;47.892;16.406;2022-08-03T19:33:04;2.10;;;1.83;;
10333;SDS011;5212;47.892;16.406;2022-08-03T19:35:33;2.10;;;1.77;;
10333;SDS011;5212;47.892;16.406;2022-08-03T19:38:00;2.50;;;2.10;;
10333;SDS011;5212;47.892;16.406;2022-08-03T19:40:29;1.90;;;1.77;;
10333;SDS011;5212;47.892;16.406;2022-08-03T19:43:01;1.97;;;1.80;;
10333;SDS011;5212;47.892;16.406;2022-08-03T19:45:33;2.07;;;1.87;;
10333;SDS011;5212;47.892;16.406;2022-08-03T19:48:04;1.73;;;1.63;;
10333;SDS011;5212;47.892;16.406;2022-08-03T19:50:33;2.27;;;1.83;;
10333;SDS011;5212;47.892;16.406;2022-08-03T19:53:02;1.90;;;1.80;;
10333;SDS011;5212;47.892;16.406;2022-08-03T19:55:32;1.90;;;1.80;;
10333;SDS011;5212;47.892;16.406;2022-08-03T19:58:04;2.07;;;1.83;;
10333;SDS011;5212;47.892;16.406;2022-08-03T20:00:32;2.13;;;1.80;;
10333;SDS011;5212;47.892;16.406;2022-08-03T20:03:01;3.03;;;1.70;;
10333;SDS011;5212;47.892;16.406;2022-08-03T20:06:06;2.10;;;1.70;;
10333;SDS011;5212;47.892;16.406;2022-08-03T20:09:11;2.00;;;1.80;;
10333;SDS011;5212;47.892;16.406;2022-08-03T20:12:36;2.23;;;1.80;;
10333;SDS011;5212;47.892;16.406;2022-08-03T20:29:39;2.20;;;2.00;;
10333;SDS011;5212;47.892;16.406;2022-08-03T20:35:59;2.40;;;2.20;;
10333;SDS011;5212;47.892;16.406;2022-08-03T20:38:58;4.33;;;2.90;;
10333;SDS011;5212;47.892;16.406;2022-08-03T20:45:15;2.40;;;2.20;;
10333;SDS011;5212;47.892;16.406;2022-08-03T20:51:38;2.87;;;2.57;;
10333;SDS011;5212;47.892;16.406;2022-08-03T20:59:01;2.10;;;1.90;;
10333;SDS011;5212;47.892;16.406;2022-08-03T21:01:31;2.60;;;2.27;;
10333;SDS011;5212;47.892;16.406;2022-08-03T21:04:00;2.20;;;2.00;;
10333;SDS011;5212;47.892;16.406;2022-08-03T21:06:30;2.10;;;2.00;;
10333;SDS011;5212;47.892;16.406;2022-08-03T21:09:02;2.10;;;1.90;;
10333;SDS011;5212;47.892;16.406;2022-08-03T21:11:32;2.27;;;2.07;;
10333;SDS011;5212;47.892;16.406;2022-08-03T21:14:07;2.50;;;2.30;;
10333;SDS011;5212;47.892;16.406;2022-08-03T21:16:39;2.10;;;1.80;;
10333;SDS011;5212;47.892;16.406;2022-08-03T21:19:09;3.50;;;2.07;;
10333;SDS011;5212;47.892;16.406;2022-08-03T21:21:38;2.20;;;2.00;;
10333;SDS011;5212;47.892;16.406;2022-08-03T21:24:06;2.63;;;2.43;;
10333;SDS011;5212;47.892;16.406;2022-08-03T21:26:34;2.23;;;2.03;;
10333;SDS011;5212;47.892;16.406;2022-08-03T21:29:06;2.83;;;2.40;;
10333;SDS011;5212;47.892;16.406;2022-08-03T21:31:34;2.67;;;2.30;;
10333;SDS011;5212;47.892;16.406;2022-08-03T21:34:03;3.00;;;2.60;;
10333;SDS011;5212;47.892;16.406;2022-08-03T21:36:32;2.10;;;1.97;;
10333;SDS011;5212;47.892;16.406;2022-08-03T21:39:02;2.27;;;2.07;;
10333;SDS011;5212;47.892;16.406;2022-08-03T21:41:31;2.50;;;2.30;;
10333;SDS011;5212;47.892;16.406;2022-08-03T21:43:59;2.50;;;2.00;;
10333;SDS011;5212;47.892;16.406;2022-08-03T21:46:29;2.67;;;2.47;;
10333;SDS011;5212;47.892;16.406;2022-08-03T21:49:00;3.03;;;2.60;;
10333;SDS011;5212;47.892;16.406;2022-08-03T21:51:32;3.30;;;3.00;;
10333;SDS011;5212;47.892;16.406;2022-08-03T21:54:02;3.13;;;2.70;;
10333;SDS011;5212;47.892;16.406;2022-08-03T21:56:32;2.83;;;2.63;;
10333;SDS011;5212;47.892;16.406;2022-08-03T21:59:02;2.77;;;2.57;;
10333;SDS011;5212;47.892;16.406;2022-08-03T22:01:31;2.57;;;2.37;;
10333;SDS011;5212;47.892;16.406;2022-08-03T22:03:59;2.90;;;2.60;;
10333;SDS011;5212;47.892;16.406;2022-08-03T22:06:32;3.60;;;2.77;;
10333;SDS011;5212;47.892;16.406;2022-08-03T22:09:02;2.80;;;2.60;;
10333;SDS011;5212;47.892;16.406;2022-08-03T22:11:31;2.90;;;2.70;;
10333;SDS011;5212;47.892;16.406;2022-08-03T22:14:00;2.87;;;2.57;;
10333;SDS011;5212;47.892;16.406;2022-08-03T22:16:29;3.27;;;2.60;;
10333;SDS011;5212;47.892;16.406;2022-08-03T22:18:57;3.23;;;2.93;;
10333;SDS011;5212;47.892;16.406;2022-08-03T22:21:29;2.83;;;2.63;;
10333;SDS011;5212;47.892;16.406;2022-08-03T22:23:58;3.20;;;2.90;;
10333;SDS011;5212;47.892;16.406;2022-08-03T22:26:26;3.30;;;2.97;;
10333;SDS011;5212;47.892;16.406;2022-08-03T22:28:55;2.90;;;2.63;;
10333;SDS011;5212;47.892;16.406;2022-08-03T22:31:23;2.83;;;2.60;;
10333;SDS011;5212;47.892;16.406;2022-08-03T22:33:52;3.27;;;3.00;;
10333;SDS011;5212;47.892;16.406;2022-08-03T22:36:20;3.43;;;3.10;;
10333;SDS011;5212;47.892;16.406;2022-08-03T22:38:51;3.30;;;3.00;;
10333;SDS011;5212;47.892;16.406;2022-08-03T22:41:19;3.07;;;2.80;;
10333;SDS011;5212;47.892;16.406;2022-08-03T22:43:48;2.70;;;2.47;;
10333;SDS011;5212;47.892;16.406;2022-08-03T22:46:16;3.07;;;2.87;;
10333;SDS011;5212;47.892;16.406;2022-08-03T22:48:47;3.47;;;3.00;;
10333;SDS011;5212;47.892;16.406;2022-08-03T22:51:15;3.20;;;2.90;;
10333;SDS011;5212;47.892;16.406;2022-08-03T22:53:47;3.70;;;3.20;;
10333;SDS011;5212;47.892;16.406;2022-08-03T22:56:17;3.37;;;3.07;;
10333;SDS011;5212;47.892;16.406;2022-08-03T22:58:46;3.40;;;3.10;;
10333;SDS011;5212;47.892;16.406;2022-08-03T23:01:13;3.17;;;2.90;;
10333;SDS011;5212;47.892;16.406;2022-08-03T23:03:46;3.20;;;2.87;;
10333;SDS011;5212;47.892;16.406;2022-08-03T23:06:18;2.80;;;2.60;;
10333;SDS011;5212;47.892;16.406;2022-08-03T23:08:46;2.90;;;2.70;;
10333;SDS011;5212;47.892;16.406;2022-08-03T23:11:14;3.20;;;2.90;;
10333;SDS011;5212;47.892;16.406;2022-08-03T23:13:47;3.60;;;3.30;;
10333;SDS011;5212;47.892;16.406;2022-08-03T23:16:19;3.27;;;2.97;;
10333;SDS011;5212;47.892;16.406;2022-08-03T23:18:47;3.10;;;2.87;;
10333;SDS011;5212;47.892;16.406;2022-08-03T23:21:17;3.07;;;2.83;;
10333;SDS011;5212;47.892;16.406;2022-08-03T23:23:45;2.90;;;2.70;;
10333;SDS011;5212;47.892;16.406;2022-08-03T23:26:13;3.30;;;3.00;;
10333;SDS011;5212;47.892;16.406;2022-08-03T23:28:44;3.40;;;3.10;;
10333;SDS011;5212;47.892;16.406;2022-08-03T23:31:14;3.30;;;3.00;;
10333;SDS011;5212;47.892;16.406;2022-08-03T23:33:42;3.20;;;2.90;;
10333;SDS011;5212;47.892;16.406;2022-08-03T23:36:11;3.00;;;2.80;;
10333;SDS011;5212;47.892;16.406;2022-08-03T23:38:42;3.60;;;3.30;;
10333;SDS011;5212;47.892;16.406;2022-08-03T23:41:09;3.80;;;3.50;;
10333;SDS011;5212;47.892;16.406;2022-08-03T23:43:39;3.67;;;3.37;;
10333;SDS011;5212;47.892;16.406;2022-08-03T23:46:09;3.93;;;3.30;;
10333;SDS011;5212;47.892;16.406;2022-08-03T23:48:39;3.80;;;3.50;;
10333;SDS011;5212;47.892;16.406;2022-08-03T23:51:08;4.27;;;3.90;;
10333;SDS011;5212;47.892;16.406;2022-08-03T23:53:39;3.80;;;3.50;;
10333;SDS011;5212;47.892;16.406;2022-08-03T23:56:11;4.73;;;3.70;;
10333;SDS011;5212;47.892;16.406;2022-08-03T23:58:44;3.77;;;3.47;;
